sensor_id;sensor_type;location;lat;lon;timestamp;temperature;humidity
69031;DHT22;56083;48.774;8.942;2023-07-30T00:01:20;16.70;99.90
69031;DHT22;56083;48.774;8.942;2023-07-30T00:03:46;16.80;99.90
69031;DHT22;56083;48.774;8.942;2023-07-30T00:06:12;16.80;99.90
69031;DHT22;56083;48.774;8.942;2023-07-30T00:08:37;16.70;99.90
69031;DHT22;56083;48.774;8.942;2023-07-30T00:11:03;16.70;99.90
69031;DHT22;56083;48.774;8.942;2023-07-30T00:13:28;16.70;99.90
69031;DHT22;56083;48.774;8.942;2023-07-30T00:15:54;16.70;99.90
69031;DHT22;56083;48.774;8.942;2023-07-30T00:18:20;16.70;99.90
69031;DHT22;56083;48.774;8.942;2023-07-30T00:20:45;16.60;99.90
69031;DHT22;56083;48.774;8.942;2023-07-30T00:23:11;16.60;99.90
69031;DHT22;56083;48.774;8.942;2023-07-30T00:25:36;16.50;99.90
69031;DHT22;56083;48.774;8.942;2023-07-30T00:28:02;16.60;99.90
69031;DHT22;56083;48.774;8.942;2023-07-30T00:30:28;16.50;99.90
69031;DHT22;56083;48.774;8.942;2023-07-30T00:32:54;16.50;99.90
69031;DHT22;56083;48.774;8.942;2023-07-30T00:35:19;16.50;99.90
69031;DHT22;56083;48.774;8.942;2023-07-30T00:37:45;16.40;99.90
69031;DHT22;56083;48.774;8.942;2023-07-30T00:40:11;16.40;99.90
69031;DHT22;56083;48.774;8.942;2023-07-30T00:42:37;16.40;99.90
69031;DHT22;56083;48.774;8.942;2023-07-30T00:45:03;16.40;99.90
69031;DHT22;56083;48.774;8.942;2023-07-30T00:47:30;16.40;99.90
69031;DHT22;56083;48.774;8.942;2023-07-30T00:49:55;16.40;99.90
69031;DHT22;56083;48.774;8.942;2023-07-30T00:52:21;16.40;99.90
69031;DHT22;56083;48.774;8.942;2023-07-30T00:54:48;16.50;99.90
69031;DHT22;56083;48.774;8.942;2023-07-30T00:57:15;16.50;99.90
69031;DHT22;56083;48.774;8.942;2023-07-30T00:59:42;16.50;99.90
69031;DHT22;56083;48.774;8.942;2023-07-30T01:02:08;16.60;99.90
69031;DHT22;56083;48.774;8.942;2023-07-30T01:04:34;16.50;99.90
69031;DHT22;56083;48.774;8.942;2023-07-30T01:07:03;16.50;99.90
69031;DHT22;56083;48.774;8.942;2023-07-30T01:09:28;16.40;99.90
69031;DHT22;56083;48.774;8.942;2023-07-30T01:11:55;16.40;99.90
69031;DHT22;56083;48.774;8.942;2023-07-30T01:14:21;16.30;99.90
69031;DHT22;56083;48.774;8.942;2023-07-30T01:16:48;16.30;99.90
69031;DHT22;56083;48.774;8.942;2023-07-30T01:19:15;16.30;99.90
69031;DHT22;56083;48.774;8.942;2023-07-30T01:21:40;16.40;99.90
69031;DHT22;56083;48.774;8.942;2023-07-30T01:24:06;16.40;99.90
69031;DHT22;56083;48.774;8.942;2023-07-30T01:26:44;16.40;99.90
69031;DHT22;56083;48.774;8.942;2023-07-30T01:29:15;16.30;99.90
69031;DHT22;56083;48.774;8.942;2023-07-30T01:31:49;16.30;99.90
69031;DHT22;56083;48.774;8.942;2023-07-30T01:34:17;16.30;99.90
69031;DHT22;56083;48.774;8.942;2023-07-30T01:36:43;16.30;99.90
69031;DHT22;56083;48.774;8.942;2023-07-30T01:39:09;16.20;99.90
69031;DHT22;56083;48.774;8.942;2023-07-30T01:41:35;16.20;99.90
69031;DHT22;56083;48.774;8.942;2023-07-30T01:44:01;16.20;99.90
69031;DHT22;56083;48.774;8.942;2023-07-30T01:46:27;16.20;99.90
69031;DHT22;56083;48.774;8.942;2023-07-30T01:48:52;16.30;99.90
69031;DHT22;56083;48.774;8.942;2023-07-30T01:51:18;16.30;99.90
69031;DHT22;56083;48.774;8.942;2023-07-30T01:53:43;16.30;99.90
69031;DHT22;56083;48.774;8.942;2023-07-30T01:56:09;16.30;99.90
69031;DHT22;56083;48.774;8.942;2023-07-30T01:58:34;16.30;99.90
69031;DHT22;56083;48.774;8.942;2023-07-30T02:01:00;16.20;99.90
69031;DHT22;56083;48.774;8.942;2023-07-30T02:03:26;16.20;99.90
69031;DHT22;56083;48.774;8.942;2023-07-30T02:05:52;16.20;99.90
69031;DHT22;56083;48.774;8.942;2023-07-30T02:08:19;16.30;99.90
69031;DHT22;56083;48.774;8.942;2023-07-30T02:10:55;16.20;99.90
69031;DHT22;56083;48.774;8.942;2023-07-30T02:13:20;16.20;99.90
69031;DHT22;56083;48.774;8.942;2023-07-30T02:15:46;16.20;99.90
69031;DHT22;56083;48.774;8.942;2023-07-30T02:18:12;16.20;99.90
69031;DHT22;56083;48.774;8.942;2023-07-30T02:20:37;16.10;99.90
69031;DHT22;56083;48.774;8.942;2023-07-30T02:23:03;16.10;99.90
69031;DHT22;56083;48.774;8.942;2023-07-30T02:25:28;16.00;99.90
69031;DHT22;56083;48.774;8.942;2023-07-30T02:27:54;16.00;99.90
69031;DHT22;56083;48.774;8.942;2023-07-30T02:30:20;16.00;99.90
69031;DHT22;56083;48.774;8.942;2023-07-30T02:32:45;16.00;99.90
69031;DHT22;56083;48.774;8.942;2023-07-30T02:35:11;16.00;99.90
69031;DHT22;56083;48.774;8.942;2023-07-30T02:37:37;16.00;99.90
69031;DHT22;56083;48.774;8.942;2023-07-30T02:40:02;16.00;99.90
69031;DHT22;56083;48.774;8.942;2023-07-30T02:42:30;16.10;99.90
69031;DHT22;56083;48.774;8.942;2023-07-30T02:44:56;16.00;99.90
69031;DHT22;56083;48.774;8.942;2023-07-30T02:47:22;16.00;99.90
69031;DHT22;56083;48.774;8.942;2023-07-30T02:49:47;16.00;99.90
69031;DHT22;56083;48.774;8.942;2023-07-30T02:52:13;16.00;99.90
69031;DHT22;56083;48.774;8.942;2023-07-30T02:54:38;16.00;99.90
69031;DHT22;56083;48.774;8.942;2023-07-30T02:57:04;16.00;99.90
69031;DHT22;56083;48.774;8.942;2023-07-30T02:59:30;16.10;99.90
69031;DHT22;56083;48.774;8.942;2023-07-30T03:01:56;16.00;99.90
69031;DHT22;56083;48.774;8.942;2023-07-30T03:04:21;16.10;99.90
69031;DHT22;56083;48.774;8.942;2023-07-30T03:06:47;16.10;99.90
69031;DHT22;56083;48.774;8.942;2023-07-30T03:09:12;16.10;99.90
69031;DHT22;56083;48.774;8.942;2023-07-30T03:11:38;16.10;99.90
69031;DHT22;56083;48.774;8.942;2023-07-30T03:14:03;16.10;99.90
69031;DHT22;56083;48.774;8.942;2023-07-30T03:16:29;16.20;99.90
69031;DHT22;56083;48.774;8.942;2023-07-30T03:18:55;16.20;99.90
69031;DHT22;56083;48.774;8.942;2023-07-30T03:21:20;16.30;99.90
69031;DHT22;56083;48.774;8.942;2023-07-30T03:23:46;16.30;99.90
69031;DHT22;56083;48.774;8.942;2023-07-30T03:26:13;16.30;99.90
69031;DHT22;56083;48.774;8.942;2023-07-30T03:28:39;16.30;99.90
69031;DHT22;56083;48.774;8.942;2023-07-30T03:31:04;16.30;99.90
69031;DHT22;56083;48.774;8.942;2023-07-30T03:33:31;16.30;99.90
69031;DHT22;56083;48.774;8.942;2023-07-30T03:35:57;16.30;99.90
69031;DHT22;56083;48.774;8.942;2023-07-30T03:38:22;16.40;99.90
69031;DHT22;56083;48.774;8.942;2023-07-30T03:40:48;16.40;99.90
69031;DHT22;56083;48.774;8.942;2023-07-30T03:43:13;16.40;99.90
69031;DHT22;56083;48.774;8.942;2023-07-30T03:45:39;16.40;99.90
69031;DHT22;56083;48.774;8.942;2023-07-30T03:48:05;16.50;99.90
69031;DHT22;56083;48.774;8.942;2023-07-30T03:50:30;16.50;99.90
69031;DHT22;56083;48.774;8.942;2023-07-30T03:52:56;16.50;99.90
69031;DHT22;56083;48.774;8.942;2023-07-30T03:55:23;16.40;99.90
69031;DHT22;56083;48.774;8.942;2023-07-30T03:57:49;16.40;99.90
69031;DHT22;56083;48.774;8.942;2023-07-30T04:00:15;16.40;99.90
69031;DHT22;56083;48.774;8.942;2023-07-30T04:02:40;16.40;99.90
69031;DHT22;56083;48.774;8.942;2023-07-30T04:05:06;16.40;99.90
69031;DHT22;56083;48.774;8.942;2023-07-30T04:07:32;16.40;99.90
69031;DHT22;56083;48.774;8.942;2023-07-30T04:09:57;16.40;99.90
69031;DHT22;56083;48.774;8.942;2023-07-30T04:12:23;16.40;99.90
69031;DHT22;56083;48.774;8.942;2023-07-30T04:14:49;16.40;99.90
69031;DHT22;56083;48.774;8.942;2023-07-30T04:17:14;16.40;99.90
69031;DHT22;56083;48.774;8.942;2023-07-30T04:19:40;16.30;99.90
69031;DHT22;56083;48.774;8.942;2023-07-30T04:22:05;16.30;99.90
69031;DHT22;56083;48.774;8.942;2023-07-30T04:24:31;16.30;99.90
69031;DHT22;56083;48.774;8.942;2023-07-30T04:26:56;16.30;99.90
69031;DHT22;56083;48.774;8.942;2023-07-30T04:29:22;16.30;99.90
69031;DHT22;56083;48.774;8.942;2023-07-30T04:31:48;16.30;99.90
69031;DHT22;56083;48.774;8.942;2023-07-30T04:34:13;16.30;99.90
69031;DHT22;56083;48.774;8.942;2023-07-30T04:36:39;16.30;99.90
69031;DHT22;56083;48.774;8.942;2023-07-30T04:39:04;16.30;99.90
69031;DHT22;56083;48.774;8.942;2023-07-30T04:41:30;16.30;99.90
69031;DHT22;56083;48.774;8.942;2023-07-30T04:43:56;16.30;99.90
69031;DHT22;56083;48.774;8.942;2023-07-30T04:46:21;16.30;99.90
69031;DHT22;56083;48.774;8.942;2023-07-30T04:48:47;16.30;99.90
69031;DHT22;56083;48.774;8.942;2023-07-30T04:51:12;16.40;99.90
69031;DHT22;56083;48.774;8.942;2023-07-30T04:53:38;16.40;99.90
69031;DHT22;56083;48.774;8.942;2023-07-30T04:56:03;16.50;99.90
69031;DHT22;56083;48.774;8.942;2023-07-30T04:58:29;16.50;99.90
69031;DHT22;56083;48.774;8.942;2023-07-30T05:00:55;16.50;99.90
69031;DHT22;56083;48.774;8.942;2023-07-30T05:03:20;16.50;99.90
69031;DHT22;56083;48.774;8.942;2023-07-30T05:05:46;16.60;99.90
69031;DHT22;56083;48.774;8.942;2023-07-30T05:08:12;16.60;99.90
69031;DHT22;56083;48.774;8.942;2023-07-30T05:10:37;16.60;99.90
69031;DHT22;56083;48.774;8.942;2023-07-30T05:13:03;16.60;99.90
69031;DHT22;56083;48.774;8.942;2023-07-30T05:15:28;16.60;99.90
69031;DHT22;56083;48.774;8.942;2023-07-30T05:17:54;16.60;99.90
69031;DHT22;56083;48.774;8.942;2023-07-30T05:20:19;16.60;99.90
69031;DHT22;56083;48.774;8.942;2023-07-30T05:22:45;16.60;99.90
69031;DHT22;56083;48.774;8.942;2023-07-30T05:25:11;16.70;99.90
69031;DHT22;56083;48.774;8.942;2023-07-30T05:27:36;16.70;99.90
69031;DHT22;56083;48.774;8.942;2023-07-30T05:30:02;16.70;99.90
69031;DHT22;56083;48.774;8.942;2023-07-30T05:32:28;16.70;99.90
69031;DHT22;56083;48.774;8.942;2023-07-30T05:34:53;16.80;99.90
69031;DHT22;56083;48.774;8.942;2023-07-30T05:37:19;16.80;99.90
69031;DHT22;56083;48.774;8.942;2023-07-30T05:39:45;16.90;99.90
69031;DHT22;56083;48.774;8.942;2023-07-30T05:42:10;16.90;99.90
69031;DHT22;56083;48.774;8.942;2023-07-30T05:44:36;17.10;99.90
69031;DHT22;56083;48.774;8.942;2023-07-30T05:47:02;17.10;99.90
69031;DHT22;56083;48.774;8.942;2023-07-30T05:49:27;17.10;99.90
69031;DHT22;56083;48.774;8.942;2023-07-30T05:51:53;17.10;99.90
69031;DHT22;56083;48.774;8.942;2023-07-30T05:54:18;17.20;99.90
69031;DHT22;56083;48.774;8.942;2023-07-30T05:56:44;17.30;99.90
69031;DHT22;56083;48.774;8.942;2023-07-30T05:59:10;17.40;99.90
69031;DHT22;56083;48.774;8.942;2023-07-30T06:01:35;17.50;99.90
69031;DHT22;56083;48.774;8.942;2023-07-30T06:04:01;17.50;99.90
69031;DHT22;56083;48.774;8.942;2023-07-30T06:06:26;17.50;99.90
69031;DHT22;56083;48.774;8.942;2023-07-30T06:08:56;17.50;99.90
69031;DHT22;56083;48.774;8.942;2023-07-30T06:11:22;17.30;99.90
69031;DHT22;56083;48.774;8.942;2023-07-30T06:13:48;17.30;99.90
69031;DHT22;56083;48.774;8.942;2023-07-30T06:16:14;17.30;99.90
69031;DHT22;56083;48.774;8.942;2023-07-30T06:18:40;17.30;99.90
69031;DHT22;56083;48.774;8.942;2023-07-30T06:21:05;17.40;99.90
69031;DHT22;56083;48.774;8.942;2023-07-30T06:23:31;17.60;99.90
69031;DHT22;56083;48.774;8.942;2023-07-30T06:25:57;17.70;99.90
69031;DHT22;56083;48.774;8.942;2023-07-30T06:28:22;17.90;99.90
69031;DHT22;56083;48.774;8.942;2023-07-30T06:30:49;18.10;99.90
69031;DHT22;56083;48.774;8.942;2023-07-30T06:33:15;18.40;99.90
69031;DHT22;56083;48.774;8.942;2023-07-30T06:35:40;18.60;99.90
69031;DHT22;56083;48.774;8.942;2023-07-30T06:38:08;18.70;99.90
69031;DHT22;56083;48.774;8.942;2023-07-30T06:40:34;18.60;99.90
69031;DHT22;56083;48.774;8.942;2023-07-30T06:43:00;18.70;99.90
69031;DHT22;56083;48.774;8.942;2023-07-30T06:45:25;18.80;99.90
69031;DHT22;56083;48.774;8.942;2023-07-30T06:47:51;18.80;99.90
69031;DHT22;56083;48.774;8.942;2023-07-30T06:50:17;18.70;99.90
69031;DHT22;56083;48.774;8.942;2023-07-30T06:52:42;18.60;99.90
69031;DHT22;56083;48.774;8.942;2023-07-30T06:55:08;18.60;99.90
69031;DHT22;56083;48.774;8.942;2023-07-30T06:57:34;18.40;99.90
69031;DHT22;56083;48.774;8.942;2023-07-30T07:00:00;18.40;99.90
69031;DHT22;56083;48.774;8.942;2023-07-30T07:02:26;18.40;99.90
69031;DHT22;56083;48.774;8.942;2023-07-30T07:04:51;18.40;99.90
69031;DHT22;56083;48.774;8.942;2023-07-30T07:07:17;18.30;99.90
69031;DHT22;56083;48.774;8.942;2023-07-30T07:09:42;18.30;99.90
69031;DHT22;56083;48.774;8.942;2023-07-30T07:12:08;18.30;99.90
69031;DHT22;56083;48.774;8.942;2023-07-30T07:14:34;18.30;99.90
69031;DHT22;56083;48.774;8.942;2023-07-30T07:16:59;18.10;99.90
69031;DHT22;56083;48.774;8.942;2023-07-30T07:19:25;18.10;99.90
69031;DHT22;56083;48.774;8.942;2023-07-30T07:21:50;17.90;99.90
69031;DHT22;56083;48.774;8.942;2023-07-30T07:24:16;17.90;99.90
69031;DHT22;56083;48.774;8.942;2023-07-30T07:26:42;18.00;99.90
69031;DHT22;56083;48.774;8.942;2023-07-30T07:29:09;17.90;99.90
69031;DHT22;56083;48.774;8.942;2023-07-30T07:31:34;17.70;99.90
69031;DHT22;56083;48.774;8.942;2023-07-30T07:34:00;17.70;99.90
69031;DHT22;56083;48.774;8.942;2023-07-30T07:36:26;17.70;99.90
69031;DHT22;56083;48.774;8.942;2023-07-30T07:38:51;17.70;99.90
69031;DHT22;56083;48.774;8.942;2023-07-30T07:41:17;17.70;99.90
69031;DHT22;56083;48.774;8.942;2023-07-30T07:43:47;17.70;99.90
69031;DHT22;56083;48.774;8.942;2023-07-30T07:46:13;17.70;99.90
69031;DHT22;56083;48.774;8.942;2023-07-30T07:48:43;17.70;99.90
69031;DHT22;56083;48.774;8.942;2023-07-30T07:51:10;17.80;99.90
69031;DHT22;56083;48.774;8.942;2023-07-30T07:53:36;17.80;99.90
69031;DHT22;56083;48.774;8.942;2023-07-30T07:56:03;17.90;99.90
69031;DHT22;56083;48.774;8.942;2023-07-30T07:58:29;18.00;99.90
69031;DHT22;56083;48.774;8.942;2023-07-30T08:00:55;18.10;99.90
69031;DHT22;56083;48.774;8.942;2023-07-30T08:03:21;18.30;99.90
69031;DHT22;56083;48.774;8.942;2023-07-30T08:05:47;18.40;99.90
69031;DHT22;56083;48.774;8.942;2023-07-30T08:08:13;18.50;99.90
69031;DHT22;56083;48.774;8.942;2023-07-30T08:10:39;18.50;99.90
69031;DHT22;56083;48.774;8.942;2023-07-30T08:13:08;18.70;99.90
69031;DHT22;56083;48.774;8.942;2023-07-30T08:15:33;18.90;99.90
69031;DHT22;56083;48.774;8.942;2023-07-30T08:17:59;19.20;99.90
69031;DHT22;56083;48.774;8.942;2023-07-30T08:20:24;19.50;99.90
69031;DHT22;56083;48.774;8.942;2023-07-30T08:22:50;19.60;99.90
69031;DHT22;56083;48.774;8.942;2023-07-30T08:25:16;19.90;99.90
69031;DHT22;56083;48.774;8.942;2023-07-30T08:27:41;20.20;99.90
69031;DHT22;56083;48.774;8.942;2023-07-30T08:30:07;20.40;99.90
69031;DHT22;56083;48.774;8.942;2023-07-30T08:32:33;20.70;99.90
69031;DHT22;56083;48.774;8.942;2023-07-30T08:34:59;20.70;99.90
69031;DHT22;56083;48.774;8.942;2023-07-30T08:37:24;20.70;99.90
69031;DHT22;56083;48.774;8.942;2023-07-30T08:39:51;21.00;99.90
69031;DHT22;56083;48.774;8.942;2023-07-30T08:42:17;20.90;99.90
69031;DHT22;56083;48.774;8.942;2023-07-30T08:44:42;21.00;99.90
69031;DHT22;56083;48.774;8.942;2023-07-30T08:47:08;20.80;99.90
69031;DHT22;56083;48.774;8.942;2023-07-30T08:49:34;21.00;99.90
69031;DHT22;56083;48.774;8.942;2023-07-30T08:52:00;21.10;99.90
69031;DHT22;56083;48.774;8.942;2023-07-30T08:54:30;20.90;99.90
69031;DHT22;56083;48.774;8.942;2023-07-30T08:56:58;21.10;99.90
69031;DHT22;56083;48.774;8.942;2023-07-30T08:59:24;21.20;99.90
69031;DHT22;56083;48.774;8.942;2023-07-30T09:01:54;21.30;99.90
69031;DHT22;56083;48.774;8.942;2023-07-30T09:04:21;21.30;99.90
69031;DHT22;56083;48.774;8.942;2023-07-30T09:06:50;21.30;99.90
69031;DHT22;56083;48.774;8.942;2023-07-30T09:09:16;21.20;99.90
69031;DHT22;56083;48.774;8.942;2023-07-30T09:11:42;20.60;99.90
69031;DHT22;56083;48.774;8.942;2023-07-30T09:14:07;20.40;99.90
69031;DHT22;56083;48.774;8.942;2023-07-30T09:16:34;20.20;99.90
69031;DHT22;56083;48.774;8.942;2023-07-30T09:19:00;20.10;99.90
69031;DHT22;56083;48.774;8.942;2023-07-30T09:21:33;20.00;99.90
69031;DHT22;56083;48.774;8.942;2023-07-30T09:24:02;20.00;99.90
69031;DHT22;56083;48.774;8.942;2023-07-30T09:26:41;20.00;99.90
69031;DHT22;56083;48.774;8.942;2023-07-30T09:29:08;20.10;99.90
69031;DHT22;56083;48.774;8.942;2023-07-30T09:31:47;20.20;99.90
69031;DHT22;56083;48.774;8.942;2023-07-30T09:34:17;20.20;99.90
69031;DHT22;56083;48.774;8.942;2023-07-30T09:36:44;20.10;99.90
69031;DHT22;56083;48.774;8.942;2023-07-30T09:39:24;20.10;99.90
69031;DHT22;56083;48.774;8.942;2023-07-30T09:41:51;20.00;99.90
69031;DHT22;56083;48.774;8.942;2023-07-30T09:44:20;20.10;99.90
69031;DHT22;56083;48.774;8.942;2023-07-30T09:46:47;20.30;99.90
69031;DHT22;56083;48.774;8.942;2023-07-30T09:49:14;20.50;99.90
69031;DHT22;56083;48.774;8.942;2023-07-30T09:51:40;20.80;99.90
69031;DHT22;56083;48.774;8.942;2023-07-30T09:54:07;21.10;99.90
69031;DHT22;56083;48.774;8.942;2023-07-30T09:56:38;21.50;99.90
69031;DHT22;56083;48.774;8.942;2023-07-30T09:59:05;21.70;99.90
69031;DHT22;56083;48.774;8.942;2023-07-30T10:01:31;21.80;99.90
69031;DHT22;56083;48.774;8.942;2023-07-30T10:03:58;21.90;99.90
69031;DHT22;56083;48.774;8.942;2023-07-30T10:06:26;21.90;99.90
69031;DHT22;56083;48.774;8.942;2023-07-30T10:08:53;22.80;99.90
69031;DHT22;56083;48.774;8.942;2023-07-30T10:11:22;23.40;99.90
69031;DHT22;56083;48.774;8.942;2023-07-30T10:13:48;23.60;99.90
69031;DHT22;56083;48.774;8.942;2023-07-30T10:16:14;23.70;99.90
69031;DHT22;56083;48.774;8.942;2023-07-30T10:18:42;23.90;99.90
69031;DHT22;56083;48.774;8.942;2023-07-30T10:21:09;24.40;99.90
69031;DHT22;56083;48.774;8.942;2023-07-30T10:23:35;25.00;99.90
69031;DHT22;56083;48.774;8.942;2023-07-30T10:26:10;24.80;99.90
69031;DHT22;56083;48.774;8.942;2023-07-30T10:28:37;25.00;99.90
69031;DHT22;56083;48.774;8.942;2023-07-30T10:31:08;25.80;99.90
69031;DHT22;56083;48.774;8.942;2023-07-30T10:33:51;25.60;99.90
69031;DHT22;56083;48.774;8.942;2023-07-30T10:36:30;25.00;99.90
69031;DHT22;56083;48.774;8.942;2023-07-30T10:38:56;25.10;99.90
69031;DHT22;56083;48.774;8.942;2023-07-30T10:41:22;25.80;99.90
69031;DHT22;56083;48.774;8.942;2023-07-30T10:43:49;26.30;99.90
69031;DHT22;56083;48.774;8.942;2023-07-30T10:46:17;27.00;99.90
69031;DHT22;56083;48.774;8.942;2023-07-30T10:48:44;27.20;99.90
69031;DHT22;56083;48.774;8.942;2023-07-30T10:51:17;27.20;99.90
69031;DHT22;56083;48.774;8.942;2023-07-30T10:53:44;27.50;99.90
69031;DHT22;56083;48.774;8.942;2023-07-30T10:56:10;27.00;99.90
69031;DHT22;56083;48.774;8.942;2023-07-30T10:58:37;26.30;99.90
69031;DHT22;56083;48.774;8.942;2023-07-30T11:01:04;24.60;99.90
69031;DHT22;56083;48.774;8.942;2023-07-30T11:03:30;23.80;99.90
69031;DHT22;56083;48.774;8.942;2023-07-30T11:05:57;23.10;99.90
69031;DHT22;56083;48.774;8.942;2023-07-30T11:08:40;22.50;99.90
69031;DHT22;56083;48.774;8.942;2023-07-30T11:11:08;22.10;99.90
69031;DHT22;56083;48.774;8.942;2023-07-30T11:13:41;22.00;99.90
69031;DHT22;56083;48.774;8.942;2023-07-30T11:16:11;21.60;99.90
69031;DHT22;56083;48.774;8.942;2023-07-30T11:18:37;22.20;99.90
69031;DHT22;56083;48.774;8.942;2023-07-30T11:23:33;23.00;99.90
69031;DHT22;56083;48.774;8.942;2023-07-30T11:26:01;23.60;99.90
69031;DHT22;56083;48.774;8.942;2023-07-30T11:28:28;25.00;99.90
69031;DHT22;56083;48.774;8.942;2023-07-30T11:33:38;27.60;99.90
69031;DHT22;56083;48.774;8.942;2023-07-30T11:36:07;27.90;99.90
69031;DHT22;56083;48.774;8.942;2023-07-30T11:38:33;27.50;99.90
69031;DHT22;56083;48.774;8.942;2023-07-30T11:41:00;26.50;99.90
69031;DHT22;56083;48.774;8.942;2023-07-30T11:43:26;26.20;99.90
69031;DHT22;56083;48.774;8.942;2023-07-30T11:46:14;25.50;99.90
69031;DHT22;56083;48.774;8.942;2023-07-30T11:48:42;25.20;99.90
69031;DHT22;56083;48.774;8.942;2023-07-30T11:53:49;25.80;99.90
69031;DHT22;56083;48.774;8.942;2023-07-30T11:56:29;25.90;99.90
69031;DHT22;56083;48.774;8.942;2023-07-30T11:59:07;26.10;99.90
69031;DHT22;56083;48.774;8.942;2023-07-30T12:01:35;27.00;99.90
69031;DHT22;56083;48.774;8.942;2023-07-30T12:04:03;27.10;99.90
69031;DHT22;56083;48.774;8.942;2023-07-30T12:09:21;27.70;99.90
69031;DHT22;56083;48.774;8.942;2023-07-30T12:11:53;28.10;99.90
69031;DHT22;56083;48.774;8.942;2023-07-30T12:14:22;27.90;99.90
69031;DHT22;56083;48.774;8.942;2023-07-30T12:16:50;26.90;99.90
69031;DHT22;56083;48.774;8.942;2023-07-30T12:19:16;26.80;99.90
69031;DHT22;56083;48.774;8.942;2023-07-30T12:21:42;27.50;99.90
69031;DHT22;56083;48.774;8.942;2023-07-30T12:24:07;27.90;99.90
69031;DHT22;56083;48.774;8.942;2023-07-30T12:26:33;27.90;99.90
69031;DHT22;56083;48.774;8.942;2023-07-30T12:28:59;27.70;99.90
69031;DHT22;56083;48.774;8.942;2023-07-30T12:31:24;28.10;99.90
69031;DHT22;56083;48.774;8.942;2023-07-30T12:33:50;28.30;99.90
69031;DHT22;56083;48.774;8.942;2023-07-30T12:36:16;28.20;99.90
69031;DHT22;56083;48.774;8.942;2023-07-30T12:38:41;28.20;99.90
69031;DHT22;56083;48.774;8.942;2023-07-30T12:41:07;28.70;99.90
69031;DHT22;56083;48.774;8.942;2023-07-30T12:43:32;28.80;99.90
69031;DHT22;56083;48.774;8.942;2023-07-30T12:45:58;28.40;99.90
69031;DHT22;56083;48.774;8.942;2023-07-30T12:48:24;28.70;99.90
69031;DHT22;56083;48.774;8.942;2023-07-30T12:50:49;27.90;99.90
69031;DHT22;56083;48.774;8.942;2023-07-30T12:53:15;27.90;99.90
69031;DHT22;56083;48.774;8.942;2023-07-30T12:55:40;26.80;99.90
69031;DHT22;56083;48.774;8.942;2023-07-30T12:58:06;25.80;99.90
69031;DHT22;56083;48.774;8.942;2023-07-30T13:00:33;25.00;99.90
69031;DHT22;56083;48.774;8.942;2023-07-30T13:02:59;25.70;99.90
69031;DHT22;56083;48.774;8.942;2023-07-30T13:05:25;26.60;99.90
69031;DHT22;56083;48.774;8.942;2023-07-30T13:07:50;27.40;99.90
69031;DHT22;56083;48.774;8.942;2023-07-30T13:10:16;28.10;99.90
69031;DHT22;56083;48.774;8.942;2023-07-30T13:12:42;27.70;99.90
69031;DHT22;56083;48.774;8.942;2023-07-30T13:15:07;27.40;99.90
69031;DHT22;56083;48.774;8.942;2023-07-30T13:17:34;26.20;99.90
69031;DHT22;56083;48.774;8.942;2023-07-30T13:19:59;25.40;99.90
69031;DHT22;56083;48.774;8.942;2023-07-30T13:22:25;25.70;99.90
69031;DHT22;56083;48.774;8.942;2023-07-30T13:24:51;26.10;99.90
69031;DHT22;56083;48.774;8.942;2023-07-30T13:27:17;26.70;99.90
69031;DHT22;56083;48.774;8.942;2023-07-30T13:29:43;27.10;99.90
69031;DHT22;56083;48.774;8.942;2023-07-30T13:32:09;27.20;99.90
69031;DHT22;56083;48.774;8.942;2023-07-30T13:34:35;26.20;99.90
69031;DHT22;56083;48.774;8.942;2023-07-30T13:37:00;25.80;99.90
69031;DHT22;56083;48.774;8.942;2023-07-30T13:39:27;25.50;99.90
69031;DHT22;56083;48.774;8.942;2023-07-30T13:41:52;25.30;99.90
69031;DHT22;56083;48.774;8.942;2023-07-30T13:44:19;24.80;99.90
69031;DHT22;56083;48.774;8.942;2023-07-30T13:46:45;25.00;99.90
69031;DHT22;56083;48.774;8.942;2023-07-30T13:49:10;25.90;99.90
69031;DHT22;56083;48.774;8.942;2023-07-30T13:51:36;26.00;99.90
69031;DHT22;56083;48.774;8.942;2023-07-30T13:54:02;26.90;99.90
69031;DHT22;56083;48.774;8.942;2023-07-30T13:56:28;27.80;99.90
69031;DHT22;56083;48.774;8.942;2023-07-30T13:58:54;28.20;99.90
69031;DHT22;56083;48.774;8.942;2023-07-30T14:01:20;28.90;99.90
69031;DHT22;56083;48.774;8.942;2023-07-30T14:03:46;29.30;99.90
69031;DHT22;56083;48.774;8.942;2023-07-30T14:06:12;28.60;99.90
69031;DHT22;56083;48.774;8.942;2023-07-30T14:08:38;27.40;99.90
69031;DHT22;56083;48.774;8.942;2023-07-30T14:11:04;26.90;99.90
69031;DHT22;56083;48.774;8.942;2023-07-30T14:13:29;27.00;99.90
69031;DHT22;56083;48.774;8.942;2023-07-30T14:15:55;25.90;99.90
69031;DHT22;56083;48.774;8.942;2023-07-30T14:18:24;26.60;99.90
69031;DHT22;56083;48.774;8.942;2023-07-30T14:20:50;27.50;99.90
69031;DHT22;56083;48.774;8.942;2023-07-30T14:23:16;27.60;99.90
69031;DHT22;56083;48.774;8.942;2023-07-30T14:25:41;27.50;99.90
69031;DHT22;56083;48.774;8.942;2023-07-30T14:28:07;26.20;99.90
69031;DHT22;56083;48.774;8.942;2023-07-30T14:30:33;25.00;99.90
69031;DHT22;56083;48.774;8.942;2023-07-30T14:32:59;25.50;99.90
69031;DHT22;56083;48.774;8.942;2023-07-30T14:35:25;25.50;99.90
69031;DHT22;56083;48.774;8.942;2023-07-30T14:37:50;26.00;99.90
69031;DHT22;56083;48.774;8.942;2023-07-30T14:40:16;26.30;99.90
69031;DHT22;56083;48.774;8.942;2023-07-30T14:42:42;26.90;99.90
69031;DHT22;56083;48.774;8.942;2023-07-30T14:45:08;27.10;99.90
69031;DHT22;56083;48.774;8.942;2023-07-30T14:47:34;26.90;99.90
69031;DHT22;56083;48.774;8.942;2023-07-30T14:49:59;27.20;99.90
69031;DHT22;56083;48.774;8.942;2023-07-30T14:52:25;27.20;99.90
69031;DHT22;56083;48.774;8.942;2023-07-30T14:54:51;26.60;99.90
69031;DHT22;56083;48.774;8.942;2023-07-30T14:57:17;26.50;99.90
69031;DHT22;56083;48.774;8.942;2023-07-30T14:59:43;26.70;99.90
69031;DHT22;56083;48.774;8.942;2023-07-30T15:02:08;27.30;99.90
69031;DHT22;56083;48.774;8.942;2023-07-30T15:04:34;26.60;99.20
69031;DHT22;56083;48.774;8.942;2023-07-30T15:07:00;26.50;99.90
69031;DHT22;56083;48.774;8.942;2023-07-30T15:09:25;25.90;99.80
69031;DHT22;56083;48.774;8.942;2023-07-30T15:11:51;26.00;99.10
69031;DHT22;56083;48.774;8.942;2023-07-30T15:14:17;26.10;98.50
69031;DHT22;56083;48.774;8.942;2023-07-30T15:16:42;26.10;98.00
69031;DHT22;56083;48.774;8.942;2023-07-30T15:19:08;26.20;98.50
69031;DHT22;56083;48.774;8.942;2023-07-30T15:21:34;26.00;98.40
69031;DHT22;56083;48.774;8.942;2023-07-30T15:24:02;25.80;99.10
69031;DHT22;56083;48.774;8.942;2023-07-30T15:26:28;26.30;97.70
69031;DHT22;56083;48.774;8.942;2023-07-30T15:28:53;26.10;97.10
69031;DHT22;56083;48.774;8.942;2023-07-30T15:31:19;26.20;97.10
69031;DHT22;56083;48.774;8.942;2023-07-30T15:33:45;26.50;96.90
69031;DHT22;56083;48.774;8.942;2023-07-30T15:36:10;26.10;97.10